Time;durP1;ratioP1;P1;durP2;ratioP2;P2;SDS_P1;SDS_P2;PMS_P1;PMS_P2;Temp;Humidity;BMP_temperature;BMP_pressure;BME280_temperature;BME280_humidity;BME280_pressure;Samples;Min_cycle;Max_cycle;Signal;HPM_P1;HPM_P2
2023/10/02 00:01:51;;;;;;;15.30;9.03;;;16.20;99.90;;;;;;6101836;23;20380;-74
2023/10/02 00:04:18;;;;;;;16.07;9.13;;;16.20;99.90;;;;;;6110904;23;20414;-72
2023/10/02 00:06:50;;;;;;;13.60;8.20;;;16.10;99.90;;;;;;6102575;23;20463;-72
2023/10/02 00:09:20;;;;;;;17.37;9.40;;;16.10;99.90;;;;;;6101960;23;20420;-73
2023/10/02 00:11:46;;;;;;;12.10;7.50;;;16.10;99.90;;;;;;6112394;23;20355;-72
2023/10/02 00:14:23;;;;;;;14.40;7.83;;;16.00;99.90;;;;;;6089487;23;20441;-72
2023/10/02 00:17:08;;;;;;;13.83;8.13;;;15.90;99.90;;;;;;6114667;23;20420;-72
2023/10/02 00:19:39;;;;;;;14.10;9.30;;;15.90;99.90;;;;;;6109274;23;20501;-73
2023/10/02 00:25:22;;;;;;;14.00;8.77;;;15.90;99.90;;;;;;6055448;23;20765;-73
2023/10/02 00:27:51;;;;;;;14.47;9.30;;;15.90;99.90;;;;;;6057409;23;20429;-73
2023/10/02 00:30:35;;;;;;;15.77;9.10;;;15.90;99.90;;;;;;6057214;23;20382;-73
2023/10/02 00:33:02;;;;;;;16.53;9.83;;;15.90;99.90;;;;;;6054438;23;20405;-72
2023/10/02 00:35:30;;;;;;;16.00;8.30;;;15.90;99.90;;;;;;6046768;23;20421;-73
2023/10/02 00:37:57;;;;;;;15.67;9.40;;;15.90;99.90;;;;;;6069019;23;20408;-74
2023/10/02 00:40:28;;;;;;;15.80;9.30;;;15.90;99.90;;;;;;6044447;23;20387;-71
2023/10/02 00:45:49;;;;;;;13.90;8.87;;;15.80;99.90;;;;;;6044723;23;20783;-71
2023/10/02 00:48:25;;;;;;;14.47;8.97;;;15.80;99.90;;;;;;6068962;23;20436;-72
2023/10/02 00:50:58;;;;;;;14.13;8.93;;;15.70;99.90;;;;;;6069241;23;20366;-71
2023/10/02 00:53:37;;;;;;;14.80;8.20;;;15.70;99.90;;;;;;6067731;23;20473;-72
2023/10/02 00:56:28;;;;;;;14.40;8.57;;;15.70;99.90;;;;;;6044276;23;20389;-72
2023/10/02 00:59:00;;;;;;;15.70;8.80;;;15.60;99.90;;;;;;6079871;23;20373;-71
2023/10/02 01:01:26;;;;;;;15.40;9.20;;;15.60;99.90;;;;;;6100183;23;20377;-71
2023/10/02 01:04:24;;;;;;;19.30;9.90;;;15.60;99.90;;;;;;6099462;23;20428;-71
2023/10/02 01:06:55;;;;;;;17.37;9.00;;;15.60;99.90;;;;;;6100499;23;20790;-72
2023/10/02 01:09:25;;;;;;;14.40;8.80;;;15.60;99.90;;;;;;6100471;23;20826;-72
2023/10/02 01:11:52;;;;;;;14.53;9.37;;;15.60;99.90;;;;;;6073911;23;20400;-73
2023/10/02 01:14:40;;;;;;;18.33;10.40;;;15.60;99.90;;;;;;6098808;23;20400;-71
2023/10/02 01:17:06;;;;;;;15.07;9.30;;;15.60;99.90;;;;;;6098844;23;20391;-71
2023/10/02 01:19:54;;;;;;;14.50;9.90;;;15.60;99.90;;;;;;6100104;23;20361;-72
2023/10/02 01:22:36;;;;;;;16.93;10.30;;;15.60;99.90;;;;;;6099331;23;20365;-73
2023/10/02 01:25:14;;;;;;;15.50;9.70;;;15.50;99.90;;;;;;6098628;23;20428;-71
2023/10/02 01:27:40;;;;;;;15.50;9.00;;;15.50;99.90;;;;;;6099559;23;20495;-73
2023/10/02 01:30:18;;;;;;;18.50;9.37;;;15.40;99.90;;;;;;6099997;23;20424;-72
2023/10/02 01:33:14;;;;;;;14.93;9.87;;;15.50;99.90;;;;;;6099226;23;20679;-71
2023/10/02 01:35:48;;;;;;;19.70;9.67;;;15.40;99.90;;;;;;6098512;23;20424;-72
2023/10/02 01:38:30;;;;;;;17.87;9.90;;;15.50;99.90;;;;;;6099857;23;20399;-72
2023/10/02 01:41:03;;;;;;;16.93;10.87;;;15.50;99.90;;;;;;6098211;23;20464;-71
2023/10/02 01:43:33;;;;;;;18.73;10.00;;;15.50;99.90;;;;;;6097474;23;20409;-72
2023/10/02 01:46:00;;;;;;;16.13;10.63;;;15.50;99.90;;;;;;6100563;23;20548;-72
2023/10/02 01:48:36;;;;;;;18.60;10.77;;;15.40;99.90;;;;;;6098877;23;20396;-71
2023/10/02 01:51:25;;;;;;;16.80;10.30;;;15.40;99.90;;;;;;6099387;23;20377;-72
2023/10/02 01:53:58;;;;;;;16.90;9.93;;;15.40;99.90;;;;;;6099810;23;20420;-72
2023/10/02 01:56:26;;;;;;;15.37;8.83;;;15.40;99.90;;;;;;6099200;23;20400;-72
2023/10/02 01:58:53;;;;;;;16.67;10.93;;;15.40;99.90;;;;;;6098930;23;20370;-71
2023/10/02 02:01:23;;;;;;;18.77;9.73;;;15.30;99.90;;;;;;6098474;23;20404;-70
2023/10/02 02:03:50;;;;;;;17.20;9.80;;;15.30;99.90;;;;;;6098860;23;20417;-72
2023/10/02 02:06:21;;;;;;;15.17;9.40;;;15.30;99.90;;;;;;6099171;23;20392;-73
2023/10/02 02:08:53;;;;;;;17.00;9.70;;;15.30;99.90;;;;;;6100598;23;20455;-70
2023/10/02 02:11:21;;;;;;;16.53;9.70;;;15.30;99.90;;;;;;6098511;23;20369;-70
2023/10/02 02:13:51;;;;;;;15.20;8.80;;;15.30;99.90;;;;;;6098876;23;20467;-71
2023/10/02 02:16:22;;;;;;;17.97;11.10;;;15.20;99.90;;;;;;6098384;23;20380;-71
2023/10/02 02:18:53;;;;;;;14.67;9.87;;;15.20;99.90;;;;;;6100075;23;20365;-70
2023/10/02 02:21:24;;;;;;;16.10;9.87;;;15.20;99.90;;;;;;6099686;23;20418;-74
2023/10/02 02:24:03;;;;;;;17.53;10.03;;;15.20;99.90;;;;;;6073780;23;20744;-72
2023/10/02 02:26:33;;;;;;;17.03;9.80;;;15.20;99.90;;;;;;6098749;23;20423;-72
2023/10/02 02:29:02;;;;;;;23.60;11.77;;;15.20;99.90;;;;;;6099361;23;20393;-71
2023/10/02 02:31:39;;;;;;;18.00;10.57;;;15.10;99.90;;;;;;6099633;23;20368;-71
2023/10/02 02:34:14;;;;;;;17.53;10.70;;;15.10;99.90;;;;;;6101568;23;20363;-72
2023/10/02 02:36:42;;;;;;;18.13;11.00;;;15.20;99.90;;;;;;6106567;23;20364;-73
2023/10/02 02:39:15;;;;;;;15.30;10.07;;;15.10;99.90;;;;;;6105428;23;20357;-71
2023/10/02 02:42:08;;;;;;;15.17;10.47;;;15.10;99.90;;;;;;6105538;23;20365;-71
2023/10/02 02:44:39;;;;;;;18.33;10.00;;;15.10;99.90;;;;;;6103886;23;20392;-74
2023/10/02 02:47:09;;;;;;;16.47;9.17;;;15.10;99.90;;;;;;6082902;23;20794;-73
2023/10/02 02:49:52;;;;;;;18.60;10.90;;;15.00;99.90;;;;;;6106517;23;20822;-72
2023/10/02 02:52:24;;;;;;;15.47;9.70;;;15.00;99.90;;;;;;6106029;23;20787;-72
2023/10/02 02:54:58;;;;;;;17.20;9.53;;;15.00;99.90;;;;;;6105163;23;20397;-73
2023/10/02 02:57:29;;;;;;;18.40;10.67;;;15.00;99.90;;;;;;6108283;23;20419;-73
2023/10/02 03:02:44;;;;;;;16.67;10.90;;;14.90;99.90;;;;;;6104588;23;20391;-71
2023/10/02 03:05:11;;;;;;;16.27;9.57;;;14.90;99.90;;;;;;6102899;23;20385;-71
2023/10/02 03:07:42;;;;;;;19.53;10.53;;;14.90;99.90;;;;;;6105080;23;20504;-71
2023/10/02 03:10:12;;;;;;;16.50;9.60;;;14.80;99.90;;;;;;6105777;23;20448;-74
2023/10/02 03:12:47;;;;;;;17.30;10.13;;;14.80;99.90;;;;;;6104782;23;20368;-72
2023/10/02 03:15:45;;;;;;;20.00;11.20;;;14.80;99.90;;;;;;6103768;23;20382;-71
2023/10/02 03:18:22;;;;;;;17.77;11.33;;;14.80;99.90;;;;;;6106318;23;20380;-75
2023/10/02 03:20:49;;;;;;;20.30;10.67;;;14.70;99.90;;;;;;6104299;23;20392;-71
2023/10/02 03:23:18;;;;;;;17.83;10.90;;;14.80;99.90;;;;;;6104751;23;20406;-73
2023/10/02 03:25:45;;;;;;;17.73;10.77;;;14.80;99.90;;;;;;6099367;23;20689;-71
2023/10/02 03:28:32;;;;;;;17.43;9.90;;;14.80;99.90;;;;;;6101439;23;20396;-71
2023/10/02 03:30:59;;;;;;;20.70;10.27;;;14.70;99.90;;;;;;6107541;23;20774;-75
2023/10/02 03:33:31;;;;;;;16.70;9.60;;;14.80;99.90;;;;;;6111650;23;20380;-73
2023/10/02 03:35:58;;;;;;;20.60;9.43;;;14.70;99.90;;;;;;6087152;23;20396;-72
2023/10/02 03:38:32;;;;;;;17.47;9.77;;;14.70;99.90;;;;;;6107769;23;20376;-72
2023/10/02 03:41:02;;;;;;;16.23;10.33;;;14.70;99.90;;;;;;6115697;23;20360;-73
2023/10/02 03:43:34;;;;;;;15.67;10.70;;;14.60;99.90;;;;;;6107598;23;20664;-73
2023/10/02 03:46:06;;;;;;;22.90;9.90;;;14.60;99.90;;;;;;6081362;23;20388;-73
2023/10/02 03:48:36;;;;;;;15.00;9.33;;;14.60;99.90;;;;;;6106544;23;20475;-74
2023/10/02 03:51:08;;;;;;;17.50;10.10;;;14.60;99.90;;;;;;6105262;23;20373;-72
2023/10/02 03:53:35;;;;;;;16.87;10.00;;;14.60;99.90;;;;;;6107991;23;20668;-72
2023/10/02 03:56:36;;;;;;;14.90;9.30;;;14.50;99.90;;;;;;6083382;23;20392;-71
2023/10/02 03:58:51;;;;;;;14.90;9.50;;;14.50;99.90;;;;;;6106922;23;20382;-71
2023/10/02 04:01:27;;;;;;;17.40;10.03;;;14.50;99.90;;;;;;6105516;23;20778;-71
2023/10/02 04:04:04;;;;;;;20.97;9.80;;;14.50;99.90;;;;;;6107363;23;20465;-71
2023/10/02 04:06:33;;;;;;;15.80;10.13;;;14.50;99.90;;;;;;6105460;23;20447;-72
2023/10/02 04:09:12;;;;;;;17.33;10.57;;;14.50;99.90;;;;;;6082462;23;20409;-72
2023/10/02 04:11:39;;;;;;;17.73;11.00;;;14.50;99.90;;;;;;6101784;23;20446;-73
2023/10/02 04:14:17;;;;;;;20.20;9.73;;;14.50;99.90;;;;;;6104125;23;20384;-71
2023/10/02 04:16:51;;;;;;;20.93;10.53;;;14.50;99.90;;;;;;6103220;23;20415;-73
2023/10/02 04:19:27;;;;;;;18.03;11.50;;;14.50;99.90;;;;;;6104816;23;20441;-73
2023/10/02 04:21:56;;;;;;;18.83;10.00;;;14.50;99.90;;;;;;6105348;23;20392;-71
2023/10/02 04:24:25;;;;;;;18.10;11.40;;;14.50;99.90;;;;;;6130062;23;20663;-71
2023/10/02 04:27:05;;;;;;;17.53;11.17;;;14.50;99.90;;;;;;6104233;23;20424;-71
2023/10/02 04:29:37;;;;;;;18.00;10.90;;;14.50;99.90;;;;;;6102352;23;20460;-71
2023/10/02 04:32:15;;;;;;;20.20;10.73;;;14.50;99.90;;;;;;6110088;23;20635;-73
2023/10/02 04:34:50;;;;;;;23.40;11.77;;;14.50;99.90;;;;;;6108181;23;20475;-71
2023/10/02 04:37:20;;;;;;;31.10;14.03;;;14.40;99.90;;;;;;6109051;23;20419;-72
2023/10/02 04:39:52;;;;;;;20.10;11.87;;;14.40;99.90;;;;;;6110188;23;20368;-72
2023/10/02 04:42:25;;;;;;;20.47;11.30;;;14.40;99.90;;;;;;6084203;23;20368;-72
2023/10/02 04:44:57;;;;;;;24.30;13.50;;;14.40;99.90;;;;;;6111693;23;20492;-75
2023/10/02 04:47:26;;;;;;;24.70;12.63;;;14.50;99.90;;;;;;6084347;23;20642;-73
2023/10/02 04:53:04;;;;;;;20.20;10.27;;;14.40;99.90;;;;;;6108059;23;20386;-72
2023/10/02 04:55:41;;;;;;;29.03;11.97;;;14.40;99.90;;;;;;6084940;23;20416;-72
2023/10/02 04:58:09;;;;;;;14.17;10.13;;;14.50;99.90;;;;;;6085485;23;20391;-73
2023/10/02 05:03:37;;;;;;;15.40;8.63;;;14.40;99.90;;;;;;6109517;23;20409;-72
2023/10/02 05:06:04;;;;;;;19.80;10.33;;;14.40;99.90;;;;;;6112571;23;20482;-72
2023/10/02 05:08:40;;;;;;;23.13;12.30;;;14.30;99.90;;;;;;6065438;23;20424;-74
2023/10/02 05:11:26;;;;;;;22.63;11.63;;;14.30;99.90;;;;;;6113637;23;20392;-76
2023/10/02 05:16:33;;;;;;;22.20;11.20;;;14.30;99.90;;;;;;6083328;23;20376;-73
2023/10/02 05:19:05;;;;;;;17.23;10.63;;;14.30;99.90;;;;;;6109149;23;20141;-72
2023/10/02 05:21:50;;;;;;;17.87;9.43;;;14.30;99.90;;;;;;6085590;23;20650;-73
2023/10/02 05:24:18;;;;;;;17.10;9.00;;;14.20;99.90;;;;;;6110364;23;20523;-73
2023/10/02 05:26:46;;;;;;;14.47;9.43;;;14.30;99.90;;;;;;6086195;23;20414;-72
2023/10/02 05:29:17;;;;;;;11.40;7.90;;;14.20;99.90;;;;;;6090335;23;20428;-73
2023/10/02 05:31:47;;;;;;;27.37;13.10;;;14.20;99.90;;;;;;6112811;23;20369;-72
2023/10/02 05:34:24;;;;;;;21.40;10.73;;;14.20;99.90;;;;;;6086869;23;20460;-73
2023/10/02 05:39:39;;;;;;;17.17;9.77;;;14.20;99.90;;;;;;6087736;23;20452;-73
2023/10/02 05:42:06;;;;;;;18.50;11.13;;;14.20;99.90;;;;;;6085789;23;20455;-71
2023/10/02 05:44:33;;;;;;;28.00;13.53;;;14.20;99.90;;;;;;6094944;23;20440;-74
2023/10/02 05:47:07;;;;;;;18.87;10.90;;;14.20;99.90;;;;;;6111414;23;20391;-72
2023/10/02 05:49:36;;;;;;;22.43;12.43;;;14.20;99.90;;;;;;6111584;23;20421;-74
2023/10/02 05:52:07;;;;;;;20.00;11.13;;;14.30;99.90;;;;;;6111721;23;20400;-76
2023/10/02 05:54:36;;;;;;;19.93;12.00;;;14.30;99.90;;;;;;6110224;23;20400;-72
2023/10/02 05:57:08;;;;;;;22.17;11.90;;;14.40;99.90;;;;;;6111565;23;20794;-76
2023/10/02 05:59:45;;;;;;;21.30;11.63;;;14.40;99.90;;;;;;6088014;23;20380;-74
2023/10/02 06:02:19;;;;;;;17.00;10.00;;;14.40;99.90;;;;;;6088656;23;20387;-74
2023/10/02 06:04:47;;;;;;;23.90;12.67;;;14.50;99.90;;;;;;6113601;23;20408;-74
2023/10/02 06:10:18;;;;;;;19.50;10.90;;;14.60;99.90;;;;;;6111571;23;20377;-73
2023/10/02 06:12:46;;;;;;;18.97;10.90;;;14.60;99.90;;;;;;6111502;23;20376;-73
2023/10/02 06:18:01;;;;;;;17.37;10.10;;;14.70;99.90;;;;;;6109229;23;20844;-72
2023/10/02 06:20:27;;;;;;;22.10;10.10;;;14.70;99.90;;;;;;6085985;23;20381;-76
2023/10/02 06:23:05;;;;;;;27.30;12.77;;;14.80;99.90;;;;;;6111351;23;20470;-73
2023/10/02 06:25:31;;;;;;;18.77;12.40;;;14.90;99.90;;;;;;6113338;23;20184;-76
2023/10/02 06:28:19;;;;;;;23.10;12.03;;;14.90;99.90;;;;;;6088851;23;20416;-76
2023/10/02 06:30:47;;;;;;;22.00;12.63;;;14.90;99.90;;;;;;6114186;23;20379;-74
2023/10/02 06:33:17;;;;;;;20.77;10.90;;;14.90;99.90;;;;;;6112201;23;20731;-75
2023/10/02 06:35:56;;;;;;;19.47;10.33;;;15.00;99.90;;;;;;6112456;23;20441;-74
2023/10/02 06:38:23;;;;;;;19.47;11.33;;;15.10;99.90;;;;;;6094805;23;20423;-75
2023/10/02 06:40:58;;;;;;;19.87;10.23;;;15.10;99.90;;;;;;6115592;23;20378;-74
2023/10/02 06:43:29;;;;;;;20.90;10.67;;;15.20;99.90;;;;;;6115760;23;20664;-76
2023/10/02 06:46:06;;;;;;;21.23;11.00;;;15.30;99.90;;;;;;6090896;23;20398;-74
2023/10/02 06:48:45;;;;;;;19.53;10.20;;;15.30;99.90;;;;;;6113025;23;20411;-74
2023/10/02 06:51:13;;;;;;;18.43;10.90;;;15.40;99.90;;;;;;6096033;23;20372;-75
2023/10/02 06:53:42;;;;;;;23.07;11.67;;;15.40;99.90;;;;;;6114678;23;20470;-76
2023/10/02 06:56:12;;;;;;;19.10;11.73;;;15.50;99.90;;;;;;6093544;23;20392;-75
2023/10/02 06:58:54;;;;;;;18.60;10.13;;;15.60;99.90;;;;;;6085639;23;20386;-73
2023/10/02 07:01:23;;;;;;;17.60;10.20;;;15.60;99.90;;;;;;6038244;23;20385;-73
2023/10/02 07:03:53;;;;;;;27.00;12.57;;;15.70;99.90;;;;;;6063291;23;20401;-73
2023/10/02 07:06:19;;;;;;;28.10;12.87;;;15.70;99.90;;;;;;6062076;23;20389;-72
2023/10/02 07:08:48;;;;;;;19.97;11.13;;;15.80;99.90;;;;;;6060767;23;20487;-74
2023/10/02 07:11:18;;;;;;;18.00;10.47;;;15.90;99.90;;;;;;6038279;23;20373;-75
2023/10/02 07:13:56;;;;;;;21.00;11.57;;;15.90;99.90;;;;;;6062083;23;20404;-73
2023/10/02 07:16:22;;;;;;;19.27;11.03;;;16.00;99.90;;;;;;6086920;23;20368;-74
2023/10/02 07:18:53;;;;;;;19.10;10.90;;;16.00;99.90;;;;;;6062236;23;20378;-74
2023/10/02 07:21:21;;;;;;;21.20;11.63;;;16.10;99.90;;;;;;6085421;23;20366;-73
2023/10/02 07:23:48;;;;;;;19.23;11.20;;;16.20;99.90;;;;;;6086079;23;20478;-73
2023/10/02 07:26:45;;;;;;;19.67;9.73;;;16.20;99.90;;;;;;6084812;23;20385;-74
2023/10/02 07:29:07;;;;;;;24.67;11.77;;;16.30;99.90;;;;;;6073988;23;20459;-76
2023/10/02 07:31:34;;;;;;;21.30;12.43;;;16.40;99.90;;;;;;6116024;23;20377;-75
2023/10/02 07:34:01;;;;;;;27.40;15.00;;;16.50;99.90;;;;;;6092349;23;20408;-74
2023/10/02 07:36:26;;;;;;;21.30;12.43;;;16.50;99.90;;;;;;6117277;23;20437;-74
2023/10/02 07:38:54;;;;;;;20.20;11.63;;;16.60;99.90;;;;;;6118289;23;20467;-75
2023/10/02 07:41:24;;;;;;;16.40;9.60;;;16.60;99.90;;;;;;6093677;23;20365;-76
2023/10/02 07:44:07;;;;;;;19.40;10.53;;;16.70;99.90;;;;;;6094025;23;20472;-75
2023/10/02 07:46:33;;;;;;;27.67;12.73;;;16.80;99.90;;;;;;6095562;23;20376;-74
2023/10/02 07:49:04;;;;;;;22.17;12.33;;;16.90;99.90;;;;;;6093650;23;20421;-75
2023/10/02 07:51:38;;;;;;;24.20;12.80;;;17.00;99.90;;;;;;6118599;23;20389;-74
2023/10/02 07:54:13;;;;;;;19.07;11.60;;;17.10;99.90;;;;;;6096005;23;20381;-75
2023/10/02 07:56:51;;;;;;;27.07;13.23;;;17.20;99.90;;;;;;6075295;23;20405;-75
2023/10/02 07:59:18;;;;;;;19.37;10.53;;;17.30;99.90;;;;;;6097547;23;20387;-76
2023/10/02 08:01:46;;;;;;;19.50;12.30;;;17.40;99.90;;;;;;6091649;23;20427;-75
2023/10/02 08:04:13;;;;;;;15.37;9.43;;;17.40;99.90;;;;;;6090941;23;20419;-76
2023/10/02 08:06:44;;;;;;;16.30;9.30;;;17.40;99.90;;;;;;6065432;23;20399;-74
2023/10/02 08:11:57;;;;;;;18.87;10.50;;;17.60;99.90;;;;;;6062845;23;20384;-75
2023/10/02 08:14:42;;;;;;;22.07;10.70;;;17.70;99.90;;;;;;6067763;23;20433;-76
2023/10/02 08:17:22;;;;;;;17.87;9.40;;;17.70;99.90;;;;;;6045936;23;20382;-74
2023/10/02 08:19:56;;;;;;;18.33;10.90;;;17.80;99.90;;;;;;6069284;23;20374;-77
2023/10/02 08:22:27;;;;;;;20.67;12.60;;;17.90;99.90;;;;;;6041701;23;20396;-75
2023/10/02 08:24:56;;;;;;;15.77;11.07;;;18.00;99.90;;;;;;6089529;23;20435;-76
2023/10/02 08:27:32;;;;;;;17.50;11.50;;;18.20;99.90;;;;;;5980656;24;20396;-75
2023/10/02 08:30:18;;;;;;;15.37;9.83;;;18.20;99.90;;;;;;5956040;24;20394;-76
2023/10/02 08:32:48;;;;;;;17.37;10.80;;;18.30;99.90;;;;;;6007739;23;20389;-73
2023/10/02 08:35:16;;;;;;;15.13;9.60;;;18.40;99.90;;;;;;6034934;23;20374;-76
2023/10/02 08:37:42;;;;;;;16.13;9.50;;;18.60;99.90;;;;;;6010542;23;20473;-77
2023/10/02 08:40:08;;;;;;;18.67;9.87;;;18.70;99.90;;;;;;6036620;23;20367;-76
2023/10/02 08:42:35;;;;;;;19.93;11.10;;;18.80;99.90;;;;;;6036550;23;20161;-76
2023/10/02 08:45:04;;;;;;;20.50;11.97;;;18.90;99.90;;;;;;6036729;23;20417;-76
2023/10/02 08:47:30;;;;;;;21.90;12.03;;;18.90;99.90;;;;;;6038638;23;20403;-75
2023/10/02 08:50:05;;;;;;;16.30;10.60;;;19.00;99.90;;;;;;6016783;23;20462;-75
2023/10/02 08:52:48;;;;;;;22.90;11.80;;;19.10;99.90;;;;;;6004225;24;20207;-76
2023/10/02 08:58:18;;;;;;;18.87;10.70;;;19.30;99.90;;;;;;5997987;23;20528;-77
2023/10/02 09:03:42;;;;;;;21.53;13.50;;;19.40;99.90;;;;;;6089760;23;20460;-76
2023/10/02 09:06:35;;;;;;;17.40;11.43;;;19.50;99.90;;;;;;6040061;23;20377;-76
2023/10/02 09:11:44;;;;;;;17.37;10.67;;;19.70;99.90;;;;;;6087815;23;20377;-76
2023/10/02 09:20:00;;;;;;;15.47;10.07;;;19.80;99.90;;;;;;6090271;23;20357;-75
2023/10/02 09:22:41;;;;;;;15.10;9.57;;;19.80;99.90;;;;;;6068015;23;20428;-76
2023/10/02 09:25:12;;;;;;;16.63;9.47;;;19.80;99.90;;;;;;6099325;23;20428;-75
2023/10/02 09:27:58;;;;;;;14.13;9.07;;;19.90;99.90;;;;;;6119071;23;20492;-77
2023/10/02 09:33:08;;;;;;;19.20;10.57;;;20.10;99.90;;;;;;6118736;23;20348;-77
2023/10/02 09:38:06;;;;;;;18.80;10.67;;;20.20;99.90;;;;;;6119752;23;20387;-76
2023/10/02 09:40:54;;;;;;;14.80;9.63;;;20.30;99.90;;;;;;6096023;23;20391;-77
2023/10/02 09:45:54;;;;;;;19.27;11.07;;;20.40;99.90;;;;;;6119738;23;20376;-77
2023/10/02 09:51:20;;;;;;;21.23;12.00;;;20.60;99.90;;;;;;6118927;23;20380;-75
2023/10/02 09:54:08;;;;;;;19.07;11.03;;;20.70;99.90;;;;;;6095770;23;20397;-76
2023/10/02 09:57:05;;;;;;;16.93;10.40;;;20.80;99.90;;;;;;6094145;23;20377;-76
2023/10/02 09:59:48;;;;;;;18.60;10.90;;;20.90;99.90;;;;;;6118934;23;20448;-77
2023/10/02 10:10:47;;;;;;;17.10;10.50;;;21.20;96.60;;;;;;6121325;23;20473;-76
2023/10/02 10:13:25;;;;;;;18.00;12.10;;;21.30;96.40;;;;;;6118680;23;20470;-77
2023/10/02 10:16:20;;;;;;;17.57;10.00;;;21.50;95.60;;;;;;6121274;23;20388;-75
2023/10/02 10:22:39;;;;;;;16.07;9.73;;;21.60;95.00;;;;;;6068429;23;20428;-77
2023/10/02 10:25:32;;;;;;;18.07;11.23;;;21.80;93.70;;;;;;6114679;23;20414;-76
2023/10/02 10:28:09;;;;;;;19.03;11.63;;;21.90;92.00;;;;;;6090826;23;20405;-77
2023/10/02 10:33:52;;;;;;;15.87;10.80;;;22.00;91.40;;;;;;6120928;23;20440;-74
2023/10/02 10:36:46;;;;;;;18.13;9.83;;;22.20;91.10;;;;;;6136636;23;20447;-77
2023/10/02 10:40:40;;;;;;;17.43;10.73;;;22.20;90.50;;;;;;6127587;23;20371;-78
2023/10/02 10:48:27;;;;;;;21.57;12.20;;;22.40;88.70;;;;;;6144350;23;20505;-76
2023/10/02 10:51:22;;;;;;;17.80;11.20;;;22.50;88.40;;;;;;6107062;23;21400;-77
2023/10/02 10:53:54;;;;;;;22.63;12.33;;;22.50;87.30;;;;;;6069688;23;20464;-76
2023/10/02 10:56:25;;;;;;;20.83;11.63;;;22.40;87.10;;;;;;6069699;23;20389;-77
2023/10/02 11:01:24;;;;;;;19.03;13.20;;;22.50;86.70;;;;;;6139054;23;20466;-77
2023/10/02 11:04:02;;;;;;;17.90;11.47;;;22.70;86.90;;;;;;6124231;23;20467;-76
2023/10/02 11:06:31;;;;;;;16.93;11.90;;;22.70;86.30;;;;;;6126689;23;20403;-77
2023/10/02 11:09:16;;;;;;;17.00;10.40;;;22.80;87.10;;;;;;6102845;23;20422;-77
2023/10/02 11:11:49;;;;;;;13.60;9.40;;;22.90;86.00;;;;;;6125660;23;20384;-76
2023/10/02 11:14:22;;;;;;;18.47;12.13;;;22.90;85.70;;;;;;6126556;23;20407;-77
2023/10/02 11:16:56;;;;;;;21.73;12.90;;;23.00;84.80;;;;;;6126617;23;20367;-76
2023/10/02 11:22:14;;;;;;;19.80;12.70;;;23.10;83.70;;;;;;6102351;23;20646;-76
2023/10/02 11:25:18;;;;;;;18.30;11.63;;;23.10;83.00;;;;;;6115883;23;20466;-76
2023/10/02 11:28:04;;;;;;;16.60;11.13;;;23.20;82.10;;;;;;6112141;23;20454;-76
2023/10/02 11:30:31;;;;;;;17.70;10.77;;;23.30;81.50;;;;;;6122707;23;20369;-75
2023/10/02 11:33:07;;;;;;;21.47;10.93;;;23.40;80.90;;;;;;6097033;23;20395;-77
2023/10/02 11:35:40;;;;;;;23.60;12.10;;;23.50;79.20;;;;;;6075197;23;20372;-77
2023/10/02 11:38:31;;;;;;;21.10;12.50;;;23.60;77.30;;;;;;6099455;23;20416;-78
2023/10/02 11:41:18;;;;;;;16.60;10.67;;;23.60;76.80;;;;;;6121204;23;20396;-77
2023/10/02 11:43:48;;;;;;;16.20;11.30;;;23.60;76.30;;;;;;6122466;23;20401;-77
2023/10/02 11:46:36;;;;;;;17.83;10.83;;;23.70;75.70;;;;;;6068918;23;20210;-78
2023/10/02 11:49:05;;;;;;;18.50;12.80;;;23.70;74.30;;;;;;6013505;23;20434;-77
2023/10/02 11:51:51;;;;;;;18.67;11.50;;;23.80;73.70;;;;;;5993174;23;20399;-78
2023/10/02 11:54:23;;;;;;;16.83;11.90;;;23.80;72.60;;;;;;6013641;23;20420;-77
2023/10/02 11:57:13;;;;;;;15.00;9.90;;;23.90;71.90;;;;;;6013221;23;20462;-76
2023/10/02 12:00:08;;;;;;;18.93;12.03;;;23.90;72.60;;;;;;6017523;23;20395;-77
2023/10/02 12:05:37;;;;;;;16.70;10.73;;;24.00;72.20;;;;;;6115163;23;20779;-77
2023/10/02 12:08:23;;;;;;;17.13;11.00;;;24.00;72.40;;;;;;6079495;23;20435;-76
2023/10/02 12:10:54;;;;;;;21.47;12.10;;;24.20;72.10;;;;;;6051039;23;20489;-77
2023/10/02 12:16:11;;;;;;;18.90;11.80;;;24.40;70.40;;;;;;6125263;23;20457;-77
2023/10/02 12:18:41;;;;;;;18.37;11.30;;;24.50;70.20;;;;;;6042129;23;20411;-77
2023/10/02 12:21:10;;;;;;;35.97;27.40;;;24.60;70.00;;;;;;6019488;23;20398;-76
2023/10/02 12:23:53;;;;;;;20.70;13.27;;;24.70;70.20;;;;;;6040924;23;20413;-76
2023/10/02 12:26:24;;;;;;;22.60;17.43;;;24.80;69.20;;;;;;6015755;23;20477;-77
2023/10/02 12:29:10;;;;;;;19.87;12.17;;;24.90;68.90;;;;;;6018396;23;20464;-78
2023/10/02 12:31:42;;;;;;;20.67;13.23;;;24.90;67.40;;;;;;6017505;23;20394;-76
2023/10/02 12:35:00;;;;;;;15.83;10.80;;;24.90;67.20;;;;;;6063764;23;20434;-79
2023/10/02 12:37:38;;;;;;;19.50;12.97;;;25.10;67.40;;;;;;6020290;23;20405;-77
2023/10/02 12:40:31;;;;;;;33.20;25.03;;;25.10;67.80;;;;;;6042573;23;20363;-77
2023/10/02 12:46:01;;;;;;;19.60;11.97;;;25.30;67.50;;;;;;6117347;23;20432;-77
2023/10/02 12:48:30;;;;;;;21.33;12.50;;;25.40;66.70;;;;;;6073674;23;20408;-75
2023/10/02 12:51:01;;;;;;;18.83;11.10;;;25.40;66.20;;;;;;6013535;23;20425;-77
2023/10/02 12:53:30;;;;;;;15.27;10.90;;;25.40;66.30;;;;;;6069386;23;20428;-77
2023/10/02 12:56:20;;;;;;;19.07;12.30;;;25.50;66.20;;;;;;6128949;23;20387;-76
2023/10/02 12:58:54;;;;;;;20.97;11.63;;;25.60;65.70;;;;;;6152049;23;20460;-75
2023/10/02 13:01:27;;;;;;;37.43;19.90;;;25.60;65.00;;;;;;6141572;23;20499;-77
2023/10/02 13:04:13;;;;;;;39.67;19.17;;;25.60;64.90;;;;;;6171445;23;20407;-75
2023/10/02 13:06:46;;;;;;;28.13;14.63;;;25.70;64.60;;;;;;6104390;23;20394;-77
2023/10/02 13:09:19;;;;;;;28.70;13.97;;;25.80;63.90;;;;;;6123232;23;20436;-77
2023/10/02 13:11:45;;;;;;;16.50;10.40;;;25.90;63.30;;;;;;6073850;23;20383;-77
2023/10/02 13:14:23;;;;;;;30.17;15.87;;;25.90;63.30;;;;;;6084298;23;21361;-74
2023/10/02 13:16:52;;;;;;;20.33;12.10;;;25.90;63.20;;;;;;6094952;23;20445;-78
2023/10/02 13:19:21;;;;;;;18.67;11.43;;;26.00;63.50;;;;;;6152305;23;20391;-77
2023/10/02 13:21:56;;;;;;;15.83;10.13;;;26.10;63.00;;;;;;6103375;23;20399;-77
2023/10/02 13:24:24;;;;;;;17.40;10.83;;;26.20;63.00;;;;;;6144850;23;20404;-77
2023/10/02 13:26:51;;;;;;;17.67;11.23;;;26.30;63.10;;;;;;6122624;23;20424;-76
2023/10/02 13:31:54;;;;;;;20.63;12.20;;;26.40;61.40;;;;;;6120352;23;20192;-77
2023/10/02 13:34:21;;;;;;;28.03;14.47;;;26.50;61.30;;;;;;6094230;23;21001;-77
2023/10/02 13:36:47;;;;;;;30.90;16.20;;;26.20;60.50;;;;;;6047016;23;20385;-77
2023/10/02 13:53:25;;;;;;;20.27;12.40;;;26.90;59.60;;;;;;6017839;23;1892410;-77
2023/10/02 13:55:52;;;;;;;19.70;11.60;;;26.90;59.10;;;;;;6121871;23;20798;-76
2023/10/02 13:58:22;;;;;;;19.00;11.03;;;26.90;59.00;;;;;;6122531;23;20399;-78
2023/10/02 14:09:48;;;;;;;20.03;12.13;;;27.30;58.60;;;;;;6116489;23;20466;-77
2023/10/02 14:12:17;;;;;;;16.33;10.50;;;27.40;58.30;;;;;;6072103;23;20399;-77
2023/10/02 14:14:45;;;;;;;16.53;11.27;;;27.40;58.60;;;;;;6075440;23;20392;-77
2023/10/02 14:17:14;;;;;;;16.40;12.17;;;27.30;58.60;;;;;;6099499;23;20160;-78
2023/10/02 14:19:40;;;;;;;18.47;12.90;;;27.30;58.80;;;;;;6073806;23;20367;-78
2023/10/02 14:22:07;;;;;;;23.00;12.20;;;27.30;58.90;;;;;;6119631;23;20377;-77
2023/10/02 14:24:34;;;;;;;21.50;12.30;;;27.30;58.80;;;;;;6122322;23;20180;-78
2023/10/02 14:27:00;;;;;;;22.83;13.80;;;27.20;58.90;;;;;;6074515;23;20388;-74
2023/10/02 14:29:26;;;;;;;19.93;11.80;;;27.10;59.00;;;;;;6073783;23;20960;-77
2023/10/02 14:32:13;;;;;;;16.20;11.40;;;27.00;59.00;;;;;;6141771;23;20400;-77
2023/10/02 14:34:39;;;;;;;16.50;11.97;;;27.00;59.30;;;;;;6075195;23;20440;-76
2023/10/02 14:37:05;;;;;;;21.30;12.00;;;26.90;59.70;;;;;;6097007;23;20399;-77
2023/10/02 14:39:35;;;;;;;17.53;12.07;;;26.80;59.70;;;;;;6122670;23;20440;-78
2023/10/02 14:42:06;;;;;;;18.67;12.37;;;26.70;60.20;;;;;;6121905;23;20353;-77
2023/10/02 14:44:39;;;;;;;21.37;12.33;;;26.70;60.50;;;;;;6098433;23;20413;-78
2023/10/02 14:47:14;;;;;;;24.63;14.67;;;26.60;60.70;;;;;;6100638;23;20468;-77
2023/10/02 14:49:48;;;;;;;21.73;14.40;;;26.60;61.20;;;;;;6052000;23;20451;-77
2023/10/02 14:52:24;;;;;;;15.63;12.00;;;26.50;61.40;;;;;;6073102;23;20393;-77
2023/10/02 14:54:56;;;;;;;31.17;16.90;;;26.40;61.50;;;;;;6096036;23;20424;-76
2023/10/02 15:00:09;;;;;;;26.43;13.73;;;26.30;61.80;;;;;;6126065;23;20387;-78
2023/10/02 15:05:39;;;;;;;18.33;11.80;;;26.30;62.50;;;;;;6114755;23;20436;-76